Time;durP1;ratioP1;P1;durP2;ratioP2;P2;SDS_P1;SDS_P2;PMS_P1;PMS_P2;Temp;Humidity;BMP_temperature;BMP_pressure;BME280_temperature;BME280_humidity;BME280_pressure;Samples;Min_cycle;Max_cycle;Signal;HPM_P1;HPM_P2
2023/12/21 00:01:36;;;;;;;4.03;1.83;;;7.30;99.90;;;;;;5019987;28;20640;-68
2023/12/21 00:04:03;;;;;;;8.87;2.10;;;7.30;99.90;;;;;;5010405;28;20211;-68
2023/12/21 00:06:28;;;;;;;3.70;1.67;;;7.20;99.90;;;;;;5012629;28;20545;-68
2023/12/21 00:08:54;;;;;;;7.23;1.57;;;7.10;99.90;;;;;;5039923;28;20452;-68
2023/12/21 00:11:20;;;;;;;5.50;1.90;;;7.10;99.90;;;;;;5014302;28;20169;-68
2023/12/21 00:13:45;;;;;;;3.23;1.70;;;7.10;99.90;;;;;;5012519;28;20416;-68
2023/12/21 00:16:12;;;;;;;3.40;1.80;;;7.10;99.90;;;;;;5015617;28;20443;-68
2023/12/21 00:18:37;;;;;;;2.90;1.73;;;7.10;99.90;;;;;;5017479;28;20173;-68
2023/12/21 00:21:03;;;;;;;5.27;1.50;;;7.10;99.90;;;;;;5024027;28;20438;-69
2023/12/21 00:23:29;;;;;;;4.13;1.67;;;7.10;99.90;;;;;;5024031;28;20226;-68
2023/12/21 00:25:54;;;;;;;2.73;1.57;;;7.10;99.90;;;;;;5015023;28;20227;-68
2023/12/21 00:28:20;;;;;;;6.13;1.93;;;7.10;99.90;;;;;;5014960;28;20296;-68
2023/12/21 00:30:45;;;;;;;3.60;1.50;;;7.20;99.90;;;;;;5025063;28;20176;-69
2023/12/21 00:33:11;;;;;;;4.80;1.57;;;7.20;99.90;;;;;;5023303;28;20295;-68
2023/12/21 00:35:37;;;;;;;4.80;1.60;;;7.20;99.90;;;;;;5021611;28;20200;-68
2023/12/21 00:38:03;;;;;;;3.00;1.90;;;7.20;99.90;;;;;;5020639;28;20199;-68
2023/12/21 00:40:28;;;;;;;6.00;2.07;;;7.20;99.90;;;;;;5022485;28;20223;-68
2023/12/21 00:42:54;;;;;;;3.90;1.87;;;7.20;99.90;;;;;;5023201;28;20863;-68
2023/12/21 00:45:19;;;;;;;5.33;1.77;;;7.20;99.90;;;;;;5023269;28;20234;-68
2023/12/21 00:47:45;;;;;;;3.73;1.50;;;7.20;99.90;;;;;;5026686;28;20229;-68
2023/12/21 00:50:11;;;;;;;2.20;1.70;;;7.20;99.90;;;;;;5033359;28;20265;-68
2023/12/21 00:52:37;;;;;;;2.67;1.63;;;7.20;99.90;;;;;;5023528;28;20197;-68
2023/12/21 00:55:03;;;;;;;2.23;1.50;;;7.20;99.90;;;;;;5024480;28;20183;-68
2023/12/21 00:57:29;;;;;;;3.50;1.77;;;7.30;99.90;;;;;;5025587;28;20434;-68
2023/12/21 00:59:54;;;;;;;3.10;1.70;;;7.30;99.90;;;;;;5023595;28;20427;-68
2023/12/21 01:02:20;;;;;;;3.00;1.40;;;7.20;99.90;;;;;;5023959;28;20444;-68
2023/12/21 01:04:45;;;;;;;5.70;1.80;;;7.20;99.90;;;;;;5031530;28;20302;-68
2023/12/21 01:07:11;;;;;;;6.10;1.60;;;7.20;99.90;;;;;;5021033;28;20199;-68
2023/12/21 01:09:38;;;;;;;2.33;1.47;;;7.30;99.90;;;;;;5025170;28;20214;-68
2023/12/21 01:12:05;;;;;;;4.90;1.73;;;7.30;99.90;;;;;;5019210;28;20631;-68
2023/12/21 01:14:31;;;;;;;2.37;1.50;;;7.30;99.90;;;;;;5019944;28;20828;-68
2023/12/21 01:16:56;;;;;;;3.60;1.40;;;7.30;99.90;;;;;;5017760;28;20442;-68
2023/12/21 01:19:22;;;;;;;2.00;1.50;;;7.30;99.90;;;;;;5017774;28;20268;-68
2023/12/21 01:21:48;;;;;;;2.73;1.40;;;7.30;99.90;;;;;;5022475;28;20180;-69
2023/12/21 01:24:13;;;;;;;2.07;1.33;;;7.30;99.90;;;;;;5023136;28;20216;-69
2023/12/21 01:26:39;;;;;;;4.13;1.60;;;7.40;99.90;;;;;;5018099;28;20184;-68
2023/12/21 01:29:04;;;;;;;4.60;1.53;;;7.30;99.90;;;;;;5017933;28;20865;-68
2023/12/21 01:31:30;;;;;;;3.17;1.40;;;7.30;99.90;;;;;;5012283;28;20259;-68
2023/12/21 01:33:55;;;;;;;3.20;1.80;;;7.20;99.90;;;;;;5017379;28;20201;-68
2023/12/21 01:36:21;;;;;;;2.37;1.30;;;7.20;99.90;;;;;;5021754;28;20238;-68
2023/12/21 01:38:46;;;;;;;2.10;1.20;;;7.30;99.90;;;;;;5023137;28;20522;-68
2023/12/21 01:41:12;;;;;;;2.63;1.40;;;7.30;99.90;;;;;;5020719;28;20188;-68
2023/12/21 01:43:38;;;;;;;2.13;1.50;;;7.20;99.90;;;;;;5022246;28;20323;-68
2023/12/21 01:46:04;;;;;;;3.63;1.80;;;7.20;99.90;;;;;;5015924;28;20176;-68
2023/12/21 01:48:30;;;;;;;3.50;1.50;;;7.30;99.90;;;;;;5021335;28;20694;-68
2023/12/21 01:50:58;;;;;;;4.00;1.40;;;7.30;99.90;;;;;;5022008;28;20407;-68
2023/12/21 01:53:24;;;;;;;2.60;1.43;;;7.30;99.90;;;;;;5023173;28;20431;-68
2023/12/21 01:55:50;;;;;;;2.67;1.30;;;7.40;99.90;;;;;;5020937;28;20431;-68
2023/12/21 01:58:16;;;;;;;3.97;1.97;;;7.40;99.90;;;;;;5016062;28;21161;-68
2023/12/21 02:00:42;;;;;;;2.63;1.60;;;7.40;99.90;;;;;;5019824;28;20263;-68
2023/12/21 02:03:08;;;;;;;3.10;1.37;;;7.40;99.90;;;;;;5020879;28;20988;-68
2023/12/21 02:05:34;;;;;;;2.80;1.50;;;7.40;99.90;;;;;;5020308;28;20184;-68
2023/12/21 02:07:59;;;;;;;2.60;1.23;;;7.30;99.90;;;;;;5016760;28;20463;-68
2023/12/21 02:10:25;;;;;;;2.17;1.50;;;7.30;99.90;;;;;;5016296;28;20181;-68
2023/12/21 02:12:51;;;;;;;2.93;1.50;;;7.40;99.90;;;;;;5023593;28;20176;-68
2023/12/21 02:15:16;;;;;;;6.67;1.60;;;7.30;99.90;;;;;;5017270;28;20180;-68
2023/12/21 02:17:46;;;;;;;6.13;1.40;;;7.30;99.90;;;;;;5013164;28;20226;-68
2023/12/21 02:20:12;;;;;;;1.90;1.30;;;7.40;99.90;;;;;;5011843;28;20209;-68
2023/12/21 02:22:40;;;;;;;3.57;1.33;;;7.40;99.90;;;;;;5013053;28;20515;-68
2023/12/21 02:25:05;;;;;;;2.00;1.20;;;7.40;99.90;;;;;;5012399;28;20437;-68
2023/12/21 02:27:31;;;;;;;1.90;1.27;;;7.40;99.90;;;;;;5014012;28;20451;-69
2023/12/21 02:29:57;;;;;;;2.03;1.20;;;7.40;99.90;;;;;;5014704;28;20447;-68
2023/12/21 02:32:22;;;;;;;2.40;1.40;;;7.40;99.90;;;;;;5016681;28;20177;-68
2023/12/21 02:34:49;;;;;;;3.83;1.40;;;7.40;99.90;;;;;;5013292;28;20200;-68
2023/12/21 02:37:15;;;;;;;2.10;1.20;;;7.40;99.90;;;;;;5012764;28;20180;-68
2023/12/21 02:39:40;;;;;;;2.57;1.47;;;7.40;99.90;;;;;;5015801;28;20458;-68
2023/12/21 02:42:06;;;;;;;3.23;1.30;;;7.40;99.90;;;;;;5015003;28;20669;-68
2023/12/21 02:44:31;;;;;;;2.73;1.30;;;7.40;99.90;;;;;;5016229;28;20216;-68
2023/12/21 02:46:58;;;;;;;1.80;1.10;;;7.40;99.90;;;;;;5015172;28;20232;-68
2023/12/21 02:49:23;;;;;;;1.70;1.00;;;7.40;99.90;;;;;;5017388;28;20322;-68
2023/12/21 02:51:49;;;;;;;3.53;1.33;;;7.40;99.90;;;;;;5021745;28;20444;-69
2023/12/21 02:54:15;;;;;;;2.70;1.10;;;7.40;99.90;;;;;;5012716;28;20557;-68
2023/12/21 02:56:41;;;;;;;1.73;1.10;;;7.30;99.90;;;;;;5014077;28;20637;-68
2023/12/21 02:59:06;;;;;;;2.00;1.10;;;7.30;99.90;;;;;;5010487;28;20181;-68
2023/12/21 03:01:32;;;;;;;5.00;1.23;;;7.30;99.90;;;;;;5014157;28;20427;-68
2023/12/21 03:04:00;;;;;;;2.20;1.20;;;7.30;99.90;;;;;;5012549;28;20207;-68
2023/12/21 03:06:26;;;;;;;1.60;0.90;;;7.30;99.90;;;;;;5011782;28;20185;-68
2023/12/21 03:08:51;;;;;;;1.80;1.20;;;7.40;99.90;;;;;;5014163;28;20475;-68
2023/12/21 03:11:17;;;;;;;2.63;1.17;;;7.30;99.90;;;;;;5012208;28;20183;-68
2023/12/21 03:13:43;;;;;;;2.70;1.17;;;7.40;99.90;;;;;;5016063;28;20199;-68
2023/12/21 03:16:09;;;;;;;2.70;1.20;;;7.40;99.90;;;;;;5012600;28;20184;-68
2023/12/21 03:18:36;;;;;;;3.30;1.13;;;7.40;99.90;;;;;;5014318;28;20208;-68
2023/12/21 03:21:02;;;;;;;1.93;1.03;;;7.50;99.90;;;;;;5011842;28;21383;-68
2023/12/21 03:23:28;;;;;;;1.80;1.30;;;7.50;99.90;;;;;;5013164;28;20485;-68
2023/12/21 03:25:53;;;;;;;1.90;1.27;;;7.50;99.90;;;;;;5014290;28;20192;-68
2023/12/21 03:28:20;;;;;;;1.50;0.90;;;7.60;99.90;;;;;;5016270;28;20326;-68
2023/12/21 03:30:45;;;;;;;3.20;1.10;;;7.60;99.90;;;;;;5023562;28;20184;-68
2023/12/21 03:33:11;;;;;;;1.63;1.00;;;7.70;99.90;;;;;;5020683;28;20450;-68
2023/12/21 03:35:36;;;;;;;2.43;1.00;;;7.70;99.90;;;;;;5024065;28;20181;-68
2023/12/21 03:38:02;;;;;;;1.70;1.00;;;7.70;99.90;;;;;;5023556;28;20319;-68
2023/12/21 03:40:28;;;;;;;1.90;1.20;;;7.70;99.90;;;;;;5020213;28;20185;-68
2023/12/21 03:42:53;;;;;;;1.50;0.90;;;7.70;99.90;;;;;;5024690;28;20447;-68
2023/12/21 03:45:19;;;;;;;2.60;1.20;;;7.70;99.90;;;;;;5025749;28;20230;-68
2023/12/21 03:47:45;;;;;;;1.70;1.00;;;7.70;99.90;;;;;;5025127;28;20590;-68
2023/12/21 03:50:11;;;;;;;1.73;0.97;;;7.80;99.90;;;;;;5017021;28;20631;-68
2023/12/21 03:52:37;;;;;;;2.23;0.90;;;7.80;99.90;;;;;;5021540;28;20426;-68
2023/12/21 03:55:03;;;;;;;2.20;1.20;;;7.80;99.90;;;;;;5025625;28;20493;-68
2023/12/21 03:57:29;;;;;;;2.90;1.10;;;7.80;99.90;;;;;;5024182;28;20177;-69
2023/12/21 03:59:54;;;;;;;2.07;1.10;;;7.80;99.90;;;;;;5026338;28;20419;-69
2023/12/21 04:02:20;;;;;;;2.37;1.10;;;7.80;99.90;;;;;;5021483;28;20187;-69
2023/12/21 04:04:46;;;;;;;1.60;0.97;;;7.80;99.90;;;;;;5024393;28;20301;-68
2023/12/21 04:07:11;;;;;;;1.80;1.07;;;7.80;99.90;;;;;;5023530;28;20223;-69
2023/12/21 04:09:38;;;;;;;1.60;1.00;;;7.90;99.90;;;;;;5025818;28;20178;-68
2023/12/21 04:12:04;;;;;;;1.53;0.90;;;7.90;99.90;;;;;;5024878;28;20177;-68
2023/12/21 04:14:30;;;;;;;5.80;1.20;;;7.90;99.90;;;;;;5027890;28;20979;-68
2023/12/21 04:16:55;;;;;;;3.00;1.10;;;7.90;99.90;;;;;;5018001;28;20435;-68
2023/12/21 04:19:21;;;;;;;1.53;1.00;;;7.90;99.90;;;;;;5015427;28;20188;-68
2023/12/21 04:21:47;;;;;;;1.67;1.00;;;7.90;99.90;;;;;;5014538;28;20207;-68
2023/12/21 04:24:12;;;;;;;2.10;1.10;;;7.90;99.90;;;;;;5017059;28;20269;-68
2023/12/21 04:26:38;;;;;;;1.70;0.90;;;7.90;99.90;;;;;;5014938;28;20180;-68
2023/12/21 04:29:03;;;;;;;1.60;0.90;;;7.90;99.90;;;;;;5021881;28;20601;-68
2023/12/21 04:31:29;;;;;;;1.70;1.10;;;7.90;99.90;;;;;;5015783;28;20219;-68
2023/12/21 04:33:54;;;;;;;2.10;1.10;;;7.90;99.90;;;;;;5018939;28;20290;-68
2023/12/21 04:36:20;;;;;;;1.70;1.00;;;7.90;99.90;;;;;;5017648;28;20189;-68
2023/12/21 04:38:46;;;;;;;2.93;1.20;;;8.00;99.90;;;;;;5018258;28;20184;-68
2023/12/21 04:41:11;;;;;;;6.27;1.50;;;7.90;99.90;;;;;;5023612;28;20289;-68
2023/12/21 04:43:37;;;;;;;1.80;1.07;;;7.90;99.90;;;;;;5026893;28;20205;-68
2023/12/21 04:46:05;;;;;;;2.53;1.00;;;7.90;99.90;;;;;;5022091;28;20335;-69
2023/12/21 04:48:31;;;;;;;1.50;1.00;;;7.90;99.90;;;;;;5019494;28;20204;-68
2023/12/21 04:50:57;;;;;;;1.47;0.90;;;7.90;99.90;;;;;;5024817;28;20787;-68
2023/12/21 04:53:22;;;;;;;2.70;1.13;;;7.90;99.90;;;;;;5024249;28;20277;-68
2023/12/21 04:55:48;;;;;;;1.73;1.03;;;7.90;99.90;;;;;;5025441;28;20884;-67
2023/12/21 04:58:14;;;;;;;2.00;1.10;;;7.90;99.90;;;;;;5020813;28;20602;-67
2023/12/21 05:00:40;;;;;;;1.50;0.90;;;7.90;99.90;;;;;;5018833;28;20480;-68
2023/12/21 05:03:06;;;;;;;1.67;1.00;;;7.90;99.90;;;;;;5025055;28;20569;-67
2023/12/21 05:05:32;;;;;;;2.77;1.53;;;7.90;99.90;;;;;;5025507;28;20439;-67
2023/12/21 05:07:57;;;;;;;2.00;1.20;;;7.90;99.90;;;;;;5027832;28;20219;-68
2023/12/21 05:10:23;;;;;;;1.80;1.10;;;7.90;99.90;;;;;;5024225;28;20270;-68
2023/12/21 05:12:50;;;;;;;1.60;1.03;;;7.90;99.90;;;;;;5026402;28;20180;-68
2023/12/21 05:15:16;;;;;;;1.50;0.90;;;7.90;99.90;;;;;;5022453;28;20249;-68
2023/12/21 05:17:41;;;;;;;2.43;1.30;;;7.80;99.90;;;;;;5020231;28;20442;-68
2023/12/21 05:20:07;;;;;;;2.90;1.10;;;7.90;99.90;;;;;;5015640;28;20192;-67
2023/12/21 05:22:33;;;;;;;1.60;0.90;;;7.90;99.90;;;;;;5013787;28;20271;-68
2023/12/21 05:24:59;;;;;;;5.13;1.17;;;7.90;99.90;;;;;;5016565;28;20921;-67
2023/12/21 05:27:24;;;;;;;1.90;1.10;;;7.80;99.90;;;;;;5014192;28;20302;-67
2023/12/21 05:29:50;;;;;;;2.00;1.00;;;7.90;99.90;;;;;;5019686;28;20239;-67
2023/12/21 05:32:15;;;;;;;1.80;1.00;;;7.90;99.90;;;;;;5022770;28;20187;-67
2023/12/21 05:34:41;;;;;;;1.60;1.00;;;7.90;99.90;;;;;;5022975;28;20618;-67
2023/12/21 05:37:06;;;;;;;1.87;1.00;;;7.80;99.90;;;;;;5023849;28;20226;-67
2023/12/21 05:39:32;;;;;;;1.87;1.00;;;7.80;99.90;;;;;;5019446;28;20247;-67
2023/12/21 05:41:58;;;;;;;2.60;1.13;;;7.90;99.90;;;;;;5023530;28;20177;-67
2023/12/21 05:44:23;;;;;;;2.07;1.00;;;7.80;99.90;;;;;;5019733;28;20788;-68
2023/12/21 05:46:49;;;;;;;1.40;0.90;;;7.70;99.90;;;;;;5023190;28;20675;-68
2023/12/21 05:49:14;;;;;;;1.50;0.90;;;7.60;99.90;;;;;;5017883;28;20173;-68
2023/12/21 05:51:40;;;;;;;1.90;1.13;;;7.70;99.90;;;;;;5019301;28;20532;-68
2023/12/21 05:54:06;;;;;;;2.03;1.07;;;7.60;99.90;;;;;;5018723;28;20205;-67
2023/12/21 05:56:35;;;;;;;1.87;1.10;;;7.60;99.90;;;;;;5021766;28;20546;-68
2023/12/21 05:59:00;;;;;;;1.50;0.93;;;7.60;99.90;;;;;;5017805;28;20424;-68
2023/12/21 06:01:26;;;;;;;2.77;1.03;;;7.50;99.90;;;;;;5017052;28;20463;-68
2023/12/21 06:03:51;;;;;;;1.57;1.00;;;7.50;99.90;;;;;;5019253;28;20212;-67
2023/12/21 06:06:17;;;;;;;1.70;0.90;;;7.50;99.90;;;;;;5020251;28;20216;-67
2023/12/21 06:08:43;;;;;;;1.60;1.03;;;7.50;99.90;;;;;;5020391;28;20216;-68
2023/12/21 06:11:08;;;;;;;2.20;1.13;;;7.50;99.90;;;;;;5023792;28;20687;-68
2023/12/21 06:13:35;;;;;;;1.60;1.00;;;7.50;99.90;;;;;;5020713;28;20196;-68
2023/12/21 06:16:00;;;;;;;1.60;1.10;;;7.50;99.90;;;;;;5019632;28;20227;-67
2023/12/21 06:18:26;;;;;;;1.60;1.00;;;7.60;99.90;;;;;;5019397;28;20430;-67
2023/12/21 06:20:51;;;;;;;1.80;1.00;;;7.60;99.90;;;;;;5024257;28;20239;-68
2023/12/21 06:23:18;;;;;;;2.03;1.10;;;7.60;99.90;;;;;;5021039;28;20220;-68
2023/12/21 06:25:43;;;;;;;1.50;0.90;;;7.60;99.90;;;;;;5023671;28;20598;-68
2023/12/21 06:28:09;;;;;;;1.70;1.00;;;7.60;99.90;;;;;;5020749;28;20483;-68
2023/12/21 06:30:35;;;;;;;1.50;1.00;;;7.70;99.90;;;;;;5020903;28;20547;-68
2023/12/21 06:33:00;;;;;;;2.17;1.00;;;7.70;99.90;;;;;;5020188;28;20196;-69
2023/12/21 06:35:26;;;;;;;1.50;0.90;;;7.70;99.90;;;;;;5023310;28;20267;-68
2023/12/21 06:37:51;;;;;;;1.60;1.00;;;7.70;99.90;;;;;;5020068;28;20203;-68
2023/12/21 06:40:17;;;;;;;1.40;0.80;;;7.70;99.90;;;;;;5021857;28;20188;-68
2023/12/21 06:42:43;;;;;;;1.50;0.90;;;7.70;99.90;;;;;;5018541;28;20275;-68
2023/12/21 06:45:09;;;;;;;1.90;1.10;;;7.70;99.90;;;;;;5016292;28;20234;-67
2023/12/21 06:47:34;;;;;;;1.70;1.00;;;7.80;99.90;;;;;;5013402;28;20254;-68
2023/12/21 06:50:00;;;;;;;1.50;0.90;;;7.80;99.90;;;;;;5012625;28;20439;-69
2023/12/21 06:52:26;;;;;;;1.90;0.97;;;7.70;99.90;;;;;;5012877;28;20254;-68
2023/12/21 06:54:51;;;;;;;1.70;1.10;;;7.80;99.90;;;;;;5041461;28;20297;-68
2023/12/21 06:57:17;;;;;;;1.50;0.90;;;7.90;99.90;;;;;;5019426;28;20254;-68
2023/12/21 06:59:42;;;;;;;2.57;1.00;;;7.90;99.90;;;;;;5011276;28;20915;-68
2023/12/21 07:02:08;;;;;;;1.73;1.10;;;7.90;99.90;;;;;;5017308;28;20234;-68
2023/12/21 07:04:34;;;;;;;1.80;1.00;;;8.00;99.90;;;;;;5046645;28;20204;-67
2023/12/21 07:07:00;;;;;;;5.10;2.30;;;8.00;99.90;;;;;;5021738;28;20897;-68
2023/12/21 07:09:26;;;;;;;3.13;1.20;;;8.10;99.90;;;;;;5020936;28;20944;-67
2023/12/21 07:11:51;;;;;;;1.60;1.00;;;8.10;99.90;;;;;;5024805;28;20188;-68
2023/12/21 07:14:17;;;;;;;1.60;0.90;;;8.10;99.90;;;;;;5021664;28;20204;-69
2023/12/21 07:16:43;;;;;;;1.80;1.20;;;8.20;99.90;;;;;;5012304;28;20188;-68
2023/12/21 07:19:08;;;;;;;1.90;0.90;;;8.20;99.90;;;;;;5018210;28;20188;-68
2023/12/21 07:21:34;;;;;;;1.90;0.90;;;8.20;99.90;;;;;;5017713;28;20172;-69
2023/12/21 07:23:59;;;;;;;1.50;0.90;;;8.20;99.90;;;;;;5022199;28;20220;-68
2023/12/21 07:26:26;;;;;;;1.57;1.03;;;8.30;99.90;;;;;;5022688;28;20271;-69
2023/12/21 07:28:52;;;;;;;1.60;1.00;;;8.30;99.90;;;;;;5021323;28;20577;-69
2023/12/21 07:31:18;;;;;;;1.97;1.10;;;8.30;99.90;;;;;;5025104;28;20439;-68
2023/12/21 07:33:44;;;;;;;1.70;1.00;;;8.30;99.90;;;;;;5018641;28;20274;-67
2023/12/21 07:36:10;;;;;;;1.57;1.00;;;8.30;99.90;;;;;;5023353;28;20948;-68
2023/12/21 07:38:37;;;;;;;1.40;0.80;;;8.30;99.90;;;;;;5023651;28;20180;-68
2023/12/21 07:41:03;;;;;;;1.70;1.00;;;8.30;99.90;;;;;;5025965;28;20494;-68
2023/12/21 07:43:29;;;;;;;3.63;1.00;;;8.30;99.90;;;;;;5024707;28;20478;-68
2023/12/21 07:45:55;;;;;;;1.73;1.20;;;8.30;99.90;;;;;;5023037;28;20422;-69
2023/12/21 07:48:20;;;;;;;1.73;1.07;;;8.20;99.90;;;;;;5024284;28;20200;-68
2023/12/21 07:50:46;;;;;;;1.90;1.00;;;8.20;99.90;;;;;;5019930;28;20643;-68
2023/12/21 07:53:11;;;;;;;1.70;1.20;;;8.20;99.90;;;;;;5025660;28;20235;-68
2023/12/21 07:55:37;;;;;;;2.57;1.10;;;8.20;99.90;;;;;;5022843;28;20188;-68
2023/12/21 07:58:03;;;;;;;3.43;1.40;;;8.20;99.90;;;;;;5026215;28;20274;-68
2023/12/21 08:00:28;;;;;;;1.70;0.90;;;8.10;99.90;;;;;;5019386;28;20199;-67
2023/12/21 08:02:54;;;;;;;2.07;1.17;;;8.10;99.90;;;;;;5020697;28;20742;-68
2023/12/21 08:05:22;;;;;;;3.53;1.10;;;8.10;99.90;;;;;;5022432;28;20808;-68
2023/12/21 08:07:49;;;;;;;1.83;0.97;;;8.10;99.90;;;;;;5022425;28;20306;-68
2023/12/21 08:10:15;;;;;;;1.70;1.07;;;8.20;99.90;;;;;;5023801;28;20427;-67
2023/12/21 08:12:40;;;;;;;1.60;1.00;;;8.20;99.90;;;;;;5019826;28;20416;-67
2023/12/21 08:15:09;;;;;;;1.90;1.20;;;8.10;99.90;;;;;;5024680;28;20185;-67
2023/12/21 08:17:36;;;;;;;1.97;1.10;;;8.20;99.90;;;;;;5023925;28;20188;-68
2023/12/21 08:20:04;;;;;;;1.60;1.00;;;8.20;99.90;;;;;;5023856;28;20447;-68
2023/12/21 08:22:30;;;;;;;1.80;1.00;;;8.20;99.90;;;;;;5019490;28;21006;-68
2023/12/21 08:24:57;;;;;;;1.50;1.00;;;8.20;99.90;;;;;;5023262;28;20469;-68
2023/12/21 08:27:23;;;;;;;3.60;1.17;;;8.30;99.90;;;;;;5024541;28;20463;-68
2023/12/21 08:29:49;;;;;;;1.80;1.10;;;8.30;99.90;;;;;;5024235;28;20799;-67
2023/12/21 08:32:15;;;;;;;1.50;1.00;;;8.30;99.90;;;;;;5022804;28;20439;-67
2023/12/21 08:34:42;;;;;;;1.80;1.00;;;8.40;99.90;;;;;;5022841;28;21005;-67
2023/12/21 08:37:08;;;;;;;1.90;1.03;;;8.40;99.90;;;;;;5020590;28;20188;-68
2023/12/21 08:39:34;;;;;;;1.60;1.00;;;8.50;99.90;;;;;;5018893;28;20891;-69
2023/12/21 08:42:01;;;;;;;1.60;1.10;;;8.50;99.90;;;;;;5023302;28;20480;-67
2023/12/21 08:44:27;;;;;;;1.90;1.10;;;8.50;99.90;;;;;;5047214;28;20212;-68
2023/12/21 08:46:53;;;;;;;1.67;1.10;;;8.50;99.90;;;;;;5018771;28;20889;-68
2023/12/21 08:49:19;;;;;;;1.60;0.90;;;8.50;99.90;;;;;;5026773;28;20439;-68
2023/12/21 08:51:44;;;;;;;1.80;1.10;;;8.50;99.90;;;;;;5023271;28;20180;-68
2023/12/21 08:54:10;;;;;;;1.60;0.90;;;8.50;99.90;;;;;;5022122;28;20678;-68
2023/12/21 08:56:42;;;;;;;1.67;1.00;;;8.50;99.90;;;;;;5022591;28;20218;-68
2023/12/21 08:59:08;;;;;;;1.60;0.90;;;8.50;99.90;;;;;;5019570;28;20188;-68
2023/12/21 09:01:33;;;;;;;1.67;1.03;;;8.50;99.90;;;;;;5013697;28;20868;-68
2023/12/21 09:03:59;;;;;;;1.77;1.07;;;8.50;99.90;;;;;;5023061;28;20219;-68
2023/12/21 09:06:25;;;;;;;1.50;0.90;;;8.50;99.90;;;;;;5026197;28;20199;-68
2023/12/21 09:08:51;;;;;;;1.90;1.10;;;8.50;99.90;;;;;;5025764;28;20237;-68
2023/12/21 09:11:16;;;;;;;1.60;0.90;;;8.50;99.90;;;;;;5024708;28;20464;-67
2023/12/21 09:13:42;;;;;;;1.60;0.90;;;8.50;99.90;;;;;;5021140;28;20953;-68
2023/12/21 09:16:07;;;;;;;1.63;0.97;;;8.50;99.90;;;;;;5026947;28;20191;-67
2023/12/21 09:18:33;;;;;;;1.70;1.00;;;8.50;99.90;;;;;;5024112;28;20318;-68
2023/12/21 09:20:58;;;;;;;1.50;0.90;;;8.60;99.90;;;;;;5025635;28;20197;-68
2023/12/21 09:23:24;;;;;;;2.17;1.00;;;8.50;99.90;;;;;;5023399;28;20224;-67
2023/12/21 09:25:49;;;;;;;1.67;1.00;;;8.50;99.90;;;;;;5022068;28;20227;-68
2023/12/21 09:28:15;;;;;;;1.60;0.93;;;8.50;99.90;;;;;;5024482;28;20200;-68
2023/12/21 09:30:41;;;;;;;2.17;1.20;;;8.50;99.90;;;;;;5021030;28;20181;-67
2023/12/21 09:33:06;;;;;;;2.43;1.00;;;8.50;99.90;;;;;;5027185;28;20208;-67
2023/12/21 09:35:32;;;;;;;1.43;0.83;;;8.50;99.90;;;;;;5026975;28;20203;-68
2023/12/21 09:37:57;;;;;;;3.27;1.10;;;8.50;99.90;;;;;;5020761;28;20228;-68
2023/12/21 09:40:26;;;;;;;1.73;1.07;;;8.40;99.90;;;;;;5028395;28;20211;-68
2023/12/21 09:42:56;;;;;;;1.67;1.00;;;8.50;99.90;;;;;;5023261;28;20215;-68
2023/12/21 09:45:23;;;;;;;1.90;1.10;;;8.60;99.90;;;;;;5023993;28;20999;-69
2023/12/21 09:47:49;;;;;;;2.23;1.17;;;8.60;99.90;;;;;;5021454;28;20471;-69
2023/12/21 09:50:16;;;;;;;2.90;1.30;;;8.60;99.90;;;;;;5063116;28;20418;-68
2023/12/21 09:52:43;;;;;;;2.63;0.90;;;8.60;99.90;;;;;;5018803;28;20458;-68
2023/12/21 09:55:10;;;;;;;1.97;1.20;;;8.70;99.90;;;;;;5033516;28;20492;-68
2023/12/21 09:57:37;;;;;;;1.60;1.00;;;8.70;99.90;;;;;;5026435;28;20427;-68
2023/12/21 10:00:04;;;;;;;2.20;1.13;;;8.80;99.90;;;;;;5029090;28;20933;-67
2023/12/21 10:02:31;;;;;;;4.90;1.10;;;8.80;99.90;;;;;;5028451;28;20442;-68
2023/12/21 10:04:57;;;;;;;1.70;1.13;;;8.90;99.90;;;;;;5023834;28;20458;-68
2023/12/21 10:07:24;;;;;;;2.23;1.00;;;8.80;99.90;;;;;;5025262;28;20513;-68
2023/12/21 10:09:50;;;;;;;1.67;0.90;;;8.90;99.90;;;;;;5017707;28;22889;-68
2023/12/21 10:12:15;;;;;;;3.10;0.90;;;8.90;99.90;;;;;;5019288;28;20435;-68
2023/12/21 10:14:43;;;;;;;1.60;0.90;;;8.80;99.90;;;;;;5024086;28;20200;-69
2023/12/21 10:17:10;;;;;;;2.50;1.30;;;8.90;99.90;;;;;;5025481;28;20191;-69
2023/12/21 10:19:44;;;;;;;2.43;1.10;;;9.00;99.90;;;;;;5028391;28;20903;-69
2023/12/21 10:22:09;;;;;;;1.50;0.90;;;9.00;99.90;;;;;;5025519;28;20470;-69
2023/12/21 10:24:37;;;;;;;2.00;0.90;;;9.10;99.90;;;;;;5027270;28;20950;-69
2023/12/21 10:27:03;;;;;;;1.53;0.90;;;9.10;99.90;;;;;;5029270;28;20275;-68
2023/12/21 10:29:29;;;;;;;1.77;1.00;;;9.10;99.90;;;;;;5021321;28;20546;-68
2023/12/21 10:31:56;;;;;;;2.07;1.10;;;9.10;99.90;;;;;;5015191;28;20414;-68
2023/12/21 10:34:22;;;;;;;1.73;1.10;;;9.10;99.90;;;;;;5016643;28;20470;-68
2023/12/21 10:36:48;;;;;;;1.70;1.10;;;9.20;99.90;;;;;;5024017;28;20442;-68
2023/12/21 10:39:15;;;;;;;2.00;1.20;;;9.20;99.90;;;;;;5019803;28;20814;-68
2023/12/21 10:41:43;;;;;;;1.73;1.10;;;9.30;99.90;;;;;;5019492;28;20181;-68
2023/12/21 10:44:12;;;;;;;2.10;1.33;;;9.30;99.90;;;;;;5016835;28;20492;-68
2023/12/21 10:46:41;;;;;;;1.47;0.90;;;9.40;99.90;;;;;;5018877;28;20441;-68
2023/12/21 10:49:10;;;;;;;1.60;0.90;;;9.40;99.90;;;;;;5019482;28;20965;-68
2023/12/21 10:51:37;;;;;;;2.43;1.00;;;9.40;99.90;;;;;;5020503;28;20431;-68
2023/12/21 10:54:07;;;;;;;1.60;1.00;;;9.40;99.90;;;;;;5015408;28;20962;-69
2023/12/21 10:56:35;;;;;;;1.80;1.00;;;9.40;99.90;;;;;;5015266;28;20519;-69
2023/12/21 10:59:03;;;;;;;1.90;1.00;;;9.50;99.90;;;;;;5018576;28;20446;-70
2023/12/21 11:01:30;;;;;;;1.80;1.27;;;9.50;99.90;;;;;;5023164;28;20450;-69
2023/12/21 11:03:59;;;;;;;1.87;1.07;;;9.50;99.90;;;;;;5021601;28;20554;-69
2023/12/21 11:06:26;;;;;;;1.70;0.97;;;9.50;99.90;;;;;;5021803;28;20529;-69
2023/12/21 11:08:53;;;;;;;1.80;1.10;;;9.50;99.90;;;;;;5020204;28;21060;-69
2023/12/21 11:11:22;;;;;;;8.50;3.20;;;9.50;99.90;;;;;;5020218;28;20439;-68
2023/12/21 11:13:54;;;;;;;1.50;0.80;;;9.50;99.90;;;;;;5021777;28;20439;-68
2023/12/21 11:16:24;;;;;;;1.87;1.10;;;9.40;99.90;;;;;;5017638;28;20431;-67
2023/12/21 11:18:53;;;;;;;1.50;1.00;;;9.40;99.90;;;;;;5018777;28;20771;-68
2023/12/21 11:21:20;;;;;;;3.07;0.97;;;9.40;99.90;;;;;;5020468;28;20782;-68
2023/12/21 11:23:46;;;;;;;2.53;1.50;;;9.30;99.90;;;;;;5020459;28;20470;-68
2023/12/21 11:26:27;;;;;;;2.30;1.23;;;9.20;99.90;;;;;;5023220;28;20973;-68
2023/12/21 11:29:05;;;;;;;1.83;1.00;;;9.10;99.90;;;;;;5017763;28;20653;-68
2023/12/21 11:31:38;;;;;;;1.80;1.10;;;9.00;99.90;;;;;;5018818;28;20411;-68
2023/12/21 11:34:21;;;;;;;1.80;1.10;;;9.00;99.90;;;;;;5019333;28;20882;-68
2023/12/21 11:37:12;;;;;;;1.67;1.03;;;9.00;99.90;;;;;;5021812;28;20439;-68
2023/12/21 11:39:38;;;;;;;2.03;1.00;;;9.00;99.90;;;;;;5019729;28;20412;-67
2023/12/21 11:42:06;;;;;;;1.90;1.20;;;9.00;99.90;;;;;;5019825;28;20474;-68
2023/12/21 11:44:35;;;;;;;1.90;1.17;;;8.90;99.90;;;;;;5019565;28;20204;-68
2023/12/21 11:47:01;;;;;;;2.20;1.13;;;8.90;99.90;;;;;;5020582;28;20407;-68
2023/12/21 11:49:27;;;;;;;1.60;0.97;;;8.90;99.90;;;;;;5025150;28;20415;-68
2023/12/21 11:51:53;;;;;;;2.10;1.10;;;9.00;99.90;;;;;;5020501;28;20189;-68
2023/12/21 11:54:22;;;;;;;2.20;1.20;;;9.00;99.90;;;;;;5023563;28;20974;-68
2023/12/21 11:56:53;;;;;;;2.50;1.30;;;9.00;99.90;;;;;;5024095;28;20176;-68
2023/12/21 11:59:28;;;;;;;1.57;1.10;;;9.00;99.90;;;;;;5024047;28;20419;-68
2023/12/21 12:01:53;;;;;;;2.57;1.20;;;9.00;99.90;;;;;;5014705;28;20529;-68
2023/12/21 12:04:19;;;;;;;1.70;1.07;;;9.00;99.90;;;;;;5025971;28;20526;-68
2023/12/21 12:06:47;;;;;;;2.23;1.40;;;8.90;99.90;;;;;;5021612;28;20183;-67
2023/12/21 12:09:12;;;;;;;1.70;1.10;;;8.90;99.90;;;;;;5027820;28;20216;-68
2023/12/21 12:11:39;;;;;;;1.63;1.07;;;8.90;99.90;;;;;;5024803;28;20523;-68
2023/12/21 12:14:05;;;;;;;2.10;1.10;;;8.90;99.90;;;;;;5025189;28;20201;-68
2023/12/21 12:16:34;;;;;;;2.20;1.20;;;8.80;99.90;;;;;;5024003;28;20556;-68
2023/12/21 12:19:00;;;;;;;1.80;1.20;;;8.80;99.90;;;;;;5024168;28;20176;-68
2023/12/21 12:21:25;;;;;;;1.70;1.03;;;8.80;99.90;;;;;;5025188;28;20404;-67
2023/12/21 12:23:51;;;;;;;1.80;1.20;;;8.80;99.90;;;;;;5022520;28;20247;-68
2023/12/21 12:26:18;;;;;;;2.50;1.20;;;8.80;99.90;;;;;;5022393;28;20181;-68
2023/12/21 12:28:44;;;;;;;2.00;1.10;;;8.80;99.90;;;;;;5022765;28;20625;-68
2023/12/21 12:31:11;;;;;;;2.70;1.10;;;8.70;99.90;;;;;;5020028;28;20504;-68
2023/12/21 12:33:38;;;;;;;1.60;0.97;;;8.70;99.90;;;;;;5024010;28;20482;-68
2023/12/21 12:36:05;;;;;;;1.73;1.20;;;8.80;99.90;;;;;;5022364;28;20415;-67
2023/12/21 12:38:30;;;;;;;1.80;1.10;;;8.80;99.90;;;;;;5021881;28;20427;-67
2023/12/21 12:40:58;;;;;;;1.77;1.00;;;8.80;99.90;;;;;;5019155;28;20484;-67
2023/12/21 12:43:24;;;;;;;1.93;1.27;;;8.80;99.90;;;;;;5024639;28;20283;-67
2023/12/21 12:45:50;;;;;;;3.83;1.30;;;8.70;99.90;;;;;;5017328;28;20427;-67
2023/12/21 12:48:18;;;;;;;1.90;1.10;;;8.70;99.90;;;;;;5023418;28;20463;-67
2023/12/21 12:50:44;;;;;;;2.10;1.30;;;8.80;99.90;;;;;;5022392;28;20181;-67
2023/12/21 12:53:10;;;;;;;2.20;1.20;;;8.80;99.90;;;;;;5019927;28;20566;-67